• Join FlightAware (Why Join?)
  • Login
  • US Flag 
02:50PM EDT


 

Airport Tracker/Info


-or-


 

Live Flight TrackerFlight Track Log ✈ UAL3740 ✈ 17-Apr-2013 ✈ KIAD - KPVD

Flight Track Log - Related Links

Times and Time Zones

All times are in EDT time to prevent confusion due to time zone crossing. See the UAL3740 flight status page for this flight to view local times or setup timezone preferences in your user account.

Time Position Orientation Groundspeed Altitude Reporting Facility
EDT Latitude Longitude Course Direction KTS MPH feet Rate Location/Type
08:31AM 39.0000 -77.4500 90° East 223 257 3,300  Level Potomac TRACON
08:32AM 39.0833 -77.4500 360° North 260 299 6,300 3,000 Climbing Potomac TRACON
08:33AM 39.1333 -77.4000 38° Northeast 281 323 9,400 1,920 Climbing Potomac TRACON
08:34AM 39.1667 -77.3167 63° Northeast 325 374 10,000 900 Climbing Potomac TRACON
08:36AM 39.0936 -77.0919 113° Southeast 376 433 12,100 1,380 Climbing Washington Center
08:37AM 39.0833 -76.6300 90° East  Level FlightAware Approximate
08:37AM 39.0911 -76.9503 91° East 383 441 14,100  Level Washington Center
08:38AM 39.1094 -76.8114 80° East 383 441 16,600 2,400 Climbing Washington Center
08:39AM 39.1169 -76.6669 86° East 383 441 18,900 2,400 Climbing Washington Center
08:40AM 39.1306 -76.5336 82° East 383 441 21,400 1,980 Climbing Washington Center
08:41AM 39.1733 -76.4081 66° East 377 434 22,900 780 Climbing Washington Center
08:42AM 39.2283 -76.2775 61° Northeast 391 450 23,000 60 Climbing Washington Center
08:43AM 39.2936 -76.1358 59° Northeast 420 483 23,100 600 Climbing Washington Center
08:44AM 39.3525 -75.9889 63° Northeast 446 513 24,300 1,320 Climbing Washington Center
08:45AM 39.4153 -75.8414 61° Northeast 459 528 25,800 1,500 Climbing Washington Center
08:46AM 39.4781 -75.6911 62° Northeast 464 534 27,300 1,200 Climbing Washington Center
08:47AM 39.5406 -75.5431 61° Northeast 464 534 28,200 1,020 Climbing Washington Center
08:48AM 39.6031 -75.3894 62° Northeast 464 534 29,400 1,260 Climbing Washington Center
08:50AM 39.7200 -75.1917 52° Northeast 472 543 31,500 1,260 Climbing New York Center
08:51AM 39.8061 -75.0619 49° Northeast 467 537 32,700 720 Climbing New York Center
08:52AM 39.8942 -74.9375 47° Northeast 462 532 33,000 120 Climbing New York Center
08:53AM 39.9842 -74.8075 48° Northeast 469 540 33,000  Level New York Center
08:54AM 40.0869 -74.6589 48° Northeast 495 570 33,000 -540 Level New York Center
08:55AM 40.1997 -74.3772 62° Northeast 555 639 31,600 -1,080 Descending Boston Center
08:56AM 40.2608 -74.2050 65° Northeast 523 602 30,200 -1,440 Descending Boston Center
08:57AM 40.3217 -74.0378 64° Northeast 512 589 28,800 -1,440 Descending Boston Center
08:58AM 40.3803 -73.8731 65° Northeast 507 583 27,300 -840 Descending Boston Center
09:00AM 40.4364 -73.7106 66° East 496 571 27,000 -180 Descending Boston Center
09:01AM 40.5072 -73.5100 65° Northeast 496 571 27,000 -180 Level Boston Center
09:02AM 40.5669 -73.3417 65° Northeast 496 571 26,700 -1,080 Descending Boston Center
09:03AM 40.6244 -73.1728 66° East 496 571 24,900 -1,920 Descending Boston Center
09:04AM 40.6797 -73.0119 66° East 496 571 22,800 -2,040 Descending Boston Center
09:05AM 40.7344 -72.8564 65° Northeast 485 558 20,900 -1,860 Descending Boston Center
09:06AM 40.7850 -72.7197 64° Northeast 458 527 19,200 -1,500 Descending Boston Center
09:07AM 40.8353 -72.5717 66° East 448 516 17,600 -1,680 Descending Boston Center
09:08AM 40.8936 -72.3961 66° East 437 503 15,600 -1,920 Descending Boston Center
09:09AM 40.9414 -72.2561 66° East 426 490 13,900 -1,680 Descending Boston Center
09:10AM 40.9911 -72.1100 66° East 419 482 12,300 -1,800 Descending Boston Center
09:10AM 41.0117 -72.0467 67° East 424 488 11,400 -1,200 Descending Boston Center
09:11AM 41.0386 -71.9694 65° Northeast 419 482 11,100 -360 Descending Boston Center
09:12AM 41.1025 -71.8533 54° Northeast 405 466 10,900 -780 Descending Boston Center
09:13AM 41.2022 -71.7917 25° Northeast 309 356 9,500 -1,440 Descending Boston Center
09:14AM 41.2811 -71.7386 27° Northeast 298 343 7,700 -1,740 Descending Boston Center
09:15AM 41.3497 -71.6989 23° Northeast 293 337 6,100 -1,800 Descending Boston Center
09:16AM 41.4222 -71.6539 25° Northeast 278 320 4,400 -1,560 Descending Boston Center
09:17AM 41.4783 -71.6200 24° Northeast 261 300 3,200 -780 Descending Boston Center
09:18AM 41.5406 -71.5831 24° Northeast 244 281 2,900 -360 Descending Boston Center
09:19AM 41.5944 -71.5381 32° Northeast 231 266 2,500 -540 Descending Boston Center
09:20AM 41.6358 -71.5014 34° Northeast 157 181 1,900 -720 Descending Boston Center
09:21AM 41.6669 -71.4731 34° Northeast 142 163 1,100 -840 Descending Boston Center
09:22AM 41.7000 -71.4447 33° Northeast 140 161 300 -840 Descending Boston Center